sensor_id;sensor_type;location;lat;lon;timestamp;P1;durP1;ratioP1;P2;durP2;ratioP2
46322;SDS011;32044;52.386;13.278;2023-12-28T00:02:23;10.43;;;5.85;;
46322;SDS011;32044;52.386;13.278;2023-12-28T00:04:50;14.02;;;6.35;;
46322;SDS011;32044;52.386;13.278;2023-12-28T00:07:18;15.05;;;6.20;;
46322;SDS011;32044;52.386;13.278;2023-12-28T00:09:45;9.88;;;5.72;;
46322;SDS011;32044;52.386;13.278;2023-12-28T00:12:12;13.00;;;5.57;;
46322;SDS011;32044;52.386;13.278;2023-12-28T00:14:40;11.77;;;5.32;;
46322;SDS011;32044;52.386;13.278;2023-12-28T00:17:07;14.20;;;5.93;;
46322;SDS011;32044;52.386;13.278;2023-12-28T00:19:36;9.20;;;5.13;;
46322;SDS011;32044;52.386;13.278;2023-12-28T00:22:04;9.82;;;5.47;;
46322;SDS011;32044;52.386;13.278;2023-12-28T00:24:31;12.90;;;5.30;;
46322;SDS011;32044;52.386;13.278;2023-12-28T00:26:59;12.95;;;4.70;;
46322;SDS011;32044;52.386;13.278;2023-12-28T00:29:26;12.05;;;5.18;;
46322;SDS011;32044;52.386;13.278;2023-12-28T00:31:55;8.80;;;4.68;;
46322;SDS011;32044;52.386;13.278;2023-12-28T00:34:22;12.70;;;4.97;;
46322;SDS011;32044;52.386;13.278;2023-12-28T00:36:51;13.25;;;5.10;;
46322;SDS011;32044;52.386;13.278;2023-12-28T00:39:19;11.48;;;5.05;;
46322;SDS011;32044;52.386;13.278;2023-12-28T00:41:46;9.32;;;4.13;;
46322;SDS011;32044;52.386;13.278;2023-12-28T00:44:13;10.63;;;4.72;;
46322;SDS011;32044;52.386;13.278;2023-12-28T00:46:41;8.75;;;4.60;;
46322;SDS011;32044;52.386;13.278;2023-12-28T00:49:08;10.25;;;4.88;;
46322;SDS011;32044;52.386;13.278;2023-12-28T00:51:36;6.30;;;3.80;;
46322;SDS011;32044;52.386;13.278;2023-12-28T00:54:05;7.00;;;3.78;;
46322;SDS011;32044;52.386;13.278;2023-12-28T00:56:33;5.80;;;3.88;;
46322;SDS011;32044;52.386;13.278;2023-12-28T00:59:00;7.20;;;3.55;;
46322;SDS011;32044;52.386;13.278;2023-12-28T01:01:28;6.88;;;3.90;;
46322;SDS011;32044;52.386;13.278;2023-12-28T01:03:56;7.75;;;3.08;;
46322;SDS011;32044;52.386;13.278;2023-12-28T01:06:24;6.47;;;3.00;;
46322;SDS011;32044;52.386;13.278;2023-12-28T01:08:55;5.78;;;3.08;;
46322;SDS011;32044;52.386;13.278;2023-12-28T01:11:23;11.07;;;3.42;;
46322;SDS011;32044;52.386;13.278;2023-12-28T01:13:51;5.10;;;3.10;;
46322;SDS011;32044;52.386;13.278;2023-12-28T01:16:19;4.30;;;2.67;;
46322;SDS011;32044;52.386;13.278;2023-12-28T01:18:47;5.53;;;2.75;;
46322;SDS011;32044;52.386;13.278;2023-12-28T01:21:15;5.25;;;2.55;;
46322;SDS011;32044;52.386;13.278;2023-12-28T01:23:42;4.40;;;3.05;;
46322;SDS011;32044;52.386;13.278;2023-12-28T01:26:12;6.40;;;3.08;;
46322;SDS011;32044;52.386;13.278;2023-12-28T01:28:40;5.22;;;3.22;;
46322;SDS011;32044;52.386;13.278;2023-12-28T01:31:08;4.07;;;2.80;;
46322;SDS011;32044;52.386;13.278;2023-12-28T01:33:36;7.55;;;3.03;;
46322;SDS011;32044;52.386;13.278;2023-12-28T01:36:13;4.82;;;2.80;;
46322;SDS011;32044;52.386;13.278;2023-12-28T01:38:41;3.80;;;2.47;;
46322;SDS011;32044;52.386;13.278;2023-12-28T01:41:08;4.18;;;2.58;;
46322;SDS011;32044;52.386;13.278;2023-12-28T01:43:36;5.45;;;2.85;;
46322;SDS011;32044;52.386;13.278;2023-12-28T01:46:05;7.80;;;2.65;;
46322;SDS011;32044;52.386;13.278;2023-12-28T01:48:33;7.53;;;2.78;;
46322;SDS011;32044;52.386;13.278;2023-12-28T01:51:01;7.15;;;2.63;;
46322;SDS011;32044;52.386;13.278;2023-12-28T01:53:30;6.28;;;2.40;;
46322;SDS011;32044;52.386;13.278;2023-12-28T01:55:58;3.58;;;2.40;;
46322;SDS011;32044;52.386;13.278;2023-12-28T01:58:26;6.43;;;2.85;;
46322;SDS011;32044;52.386;13.278;2023-12-28T02:00:55;5.03;;;2.15;;
46322;SDS011;32044;52.386;13.278;2023-12-28T02:03:23;3.70;;;2.25;;
46322;SDS011;32044;52.386;13.278;2023-12-28T02:05:51;3.45;;;2.05;;
46322;SDS011;32044;52.386;13.278;2023-12-28T02:08:19;4.13;;;2.10;;
46322;SDS011;32044;52.386;13.278;2023-12-28T02:10:46;4.80;;;2.10;;
46322;SDS011;32044;52.386;13.278;2023-12-28T02:13:14;4.38;;;2.25;;
46322;SDS011;32044;52.386;13.278;2023-12-28T02:15:41;4.28;;;1.90;;
46322;SDS011;32044;52.386;13.278;2023-12-28T02:18:10;3.20;;;2.00;;
46322;SDS011;32044;52.386;13.278;2023-12-28T02:20:40;5.18;;;2.47;;
46322;SDS011;32044;52.386;13.278;2023-12-28T02:23:08;2.33;;;1.80;;
46322;SDS011;32044;52.386;13.278;2023-12-28T02:25:37;7.03;;;2.20;;
46322;SDS011;32044;52.386;13.278;2023-12-28T02:28:05;5.97;;;2.50;;
46322;SDS011;32044;52.386;13.278;2023-12-28T02:30:32;5.78;;;2.25;;
46322;SDS011;32044;52.386;13.278;2023-12-28T02:33:02;5.07;;;1.80;;
46322;SDS011;32044;52.386;13.278;2023-12-28T02:35:34;4.22;;;2.15;;
46322;SDS011;32044;52.386;13.278;2023-12-28T02:38:04;4.32;;;2.15;;
46322;SDS011;32044;52.386;13.278;2023-12-28T02:40:35;2.65;;;1.83;;
46322;SDS011;32044;52.386;13.278;2023-12-28T02:43:04;3.60;;;2.10;;
46322;SDS011;32044;52.386;13.278;2023-12-28T02:45:32;5.07;;;2.15;;
46322;SDS011;32044;52.386;13.278;2023-12-28T02:47:59;2.75;;;1.85;;
46322;SDS011;32044;52.386;13.278;2023-12-28T02:50:28;2.95;;;2.00;;
46322;SDS011;32044;52.386;13.278;2023-12-28T02:52:56;3.55;;;2.40;;
46322;SDS011;32044;52.386;13.278;2023-12-28T02:55:23;5.90;;;2.20;;
46322;SDS011;32044;52.386;13.278;2023-12-28T02:57:51;2.30;;;1.95;;
46322;SDS011;32044;52.386;13.278;2023-12-28T03:00:23;3.97;;;1.73;;
46322;SDS011;32044;52.386;13.278;2023-12-28T03:02:50;4.90;;;2.00;;
46322;SDS011;32044;52.386;13.278;2023-12-28T03:05:18;4.20;;;1.75;;
46322;SDS011;32044;52.386;13.278;2023-12-28T03:07:46;5.45;;;1.90;;
46322;SDS011;32044;52.386;13.278;2023-12-28T03:10:13;4.82;;;1.80;;
46322;SDS011;32044;52.386;13.278;2023-12-28T03:12:41;2.92;;;1.80;;
46322;SDS011;32044;52.386;13.278;2023-12-28T03:15:09;5.78;;;2.10;;
46322;SDS011;32044;52.386;13.278;2023-12-28T03:17:37;4.50;;;2.00;;
46322;SDS011;32044;52.386;13.278;2023-12-28T03:20:05;3.85;;;1.77;;
46322;SDS011;32044;52.386;13.278;2023-12-28T03:22:33;3.55;;;2.05;;
46322;SDS011;32044;52.386;13.278;2023-12-28T03:25:01;3.17;;;1.70;;
46322;SDS011;32044;52.386;13.278;2023-12-28T03:27:29;2.80;;;1.80;;
46322;SDS011;32044;52.386;13.278;2023-12-28T03:29:57;2.97;;;1.63;;
46322;SDS011;32044;52.386;13.278;2023-12-28T03:32:24;3.35;;;1.98;;
46322;SDS011;32044;52.386;13.278;2023-12-28T03:34:53;3.90;;;1.58;;
46322;SDS011;32044;52.386;13.278;2023-12-28T03:37:20;3.40;;;1.80;;
46322;SDS011;32044;52.386;13.278;2023-12-28T03:39:48;4.13;;;1.77;;
46322;SDS011;32044;52.386;13.278;2023-12-28T03:42:16;4.18;;;1.55;;
46322;SDS011;32044;52.386;13.278;2023-12-28T03:44:43;3.08;;;1.77;;
46322;SDS011;32044;52.386;13.278;2023-12-28T03:47:11;4.63;;;1.73;;
46322;SDS011;32044;52.386;13.278;2023-12-28T03:49:38;2.47;;;1.67;;
46322;SDS011;32044;52.386;13.278;2023-12-28T03:52:07;2.22;;;1.67;;
46322;SDS011;32044;52.386;13.278;2023-12-28T03:54:35;4.55;;;1.80;;
46322;SDS011;32044;52.386;13.278;2023-12-28T03:57:03;2.55;;;1.73;;
46322;SDS011;32044;52.386;13.278;2023-12-28T03:59:30;2.75;;;1.90;;
46322;SDS011;32044;52.386;13.278;2023-12-28T04:01:58;6.10;;;1.90;;
46322;SDS011;32044;52.386;13.278;2023-12-28T04:04:25;3.70;;;1.83;;
46322;SDS011;32044;52.386;13.278;2023-12-28T04:06:53;3.33;;;1.88;;
46322;SDS011;32044;52.386;13.278;2023-12-28T04:09:22;2.45;;;1.65;;
46322;SDS011;32044;52.386;13.278;2023-12-28T04:11:49;3.70;;;1.75;;
46322;SDS011;32044;52.386;13.278;2023-12-28T04:14:17;2.88;;;1.75;;
46322;SDS011;32044;52.386;13.278;2023-12-28T04:16:45;4.60;;;1.50;;
46322;SDS011;32044;52.386;13.278;2023-12-28T04:19:12;2.90;;;1.80;;
46322;SDS011;32044;52.386;13.278;2023-12-28T04:21:44;5.07;;;1.55;;
46322;SDS011;32044;52.386;13.278;2023-12-28T04:24:11;2.10;;;1.55;;
46322;SDS011;32044;52.386;13.278;2023-12-28T04:26:40;2.90;;;1.75;;
46322;SDS011;32044;52.386;13.278;2023-12-28T04:29:08;3.17;;;1.50;;
46322;SDS011;32044;52.386;13.278;2023-12-28T04:31:39;2.03;;;1.48;;
46322;SDS011;32044;52.386;13.278;2023-12-28T04:34:06;2.33;;;1.90;;
46322;SDS011;32044;52.386;13.278;2023-12-28T04:36:39;5.20;;;2.25;;
46322;SDS011;32044;52.386;13.278;2023-12-28T04:39:06;2.90;;;2.20;;
46322;SDS011;32044;52.386;13.278;2023-12-28T04:41:34;3.15;;;1.70;;
46322;SDS011;32044;52.386;13.278;2023-12-28T04:44:03;2.35;;;1.60;;
46322;SDS011;32044;52.386;13.278;2023-12-28T04:46:30;3.15;;;1.73;;
46322;SDS011;32044;52.386;13.278;2023-12-28T04:48:58;4.18;;;1.88;;
46322;SDS011;32044;52.386;13.278;2023-12-28T04:51:25;2.30;;;1.58;;
46322;SDS011;32044;52.386;13.278;2023-12-28T04:53:53;3.58;;;1.67;;
46322;SDS011;32044;52.386;13.278;2023-12-28T04:56:20;3.65;;;1.50;;
46322;SDS011;32044;52.386;13.278;2023-12-28T04:58:48;2.65;;;1.65;;
46322;SDS011;32044;52.386;13.278;2023-12-28T05:01:16;2.97;;;1.70;;
46322;SDS011;32044;52.386;13.278;2023-12-28T05:03:44;2.88;;;1.65;;
46322;SDS011;32044;52.386;13.278;2023-12-28T05:06:12;1.73;;;1.40;;
46322;SDS011;32044;52.386;13.278;2023-12-28T05:08:39;2.90;;;1.60;;
46322;SDS011;32044;52.386;13.278;2023-12-28T05:11:07;2.45;;;1.60;;
46322;SDS011;32044;52.386;13.278;2023-12-28T05:13:34;2.83;;;1.80;;
46322;SDS011;32044;52.386;13.278;2023-12-28T05:16:02;4.95;;;1.75;;
46322;SDS011;32044;52.386;13.278;2023-12-28T05:18:31;5.88;;;2.10;;
46322;SDS011;32044;52.386;13.278;2023-12-28T05:20:58;2.55;;;1.65;;
46322;SDS011;32044;52.386;13.278;2023-12-28T05:23:26;4.25;;;1.70;;
46322;SDS011;32044;52.386;13.278;2023-12-28T05:25:53;3.13;;;1.63;;
46322;SDS011;32044;52.386;13.278;2023-12-28T05:28:21;2.40;;;1.65;;
46322;SDS011;32044;52.386;13.278;2023-12-28T05:30:48;3.08;;;1.70;;
46322;SDS011;32044;52.386;13.278;2023-12-28T05:33:16;2.47;;;1.90;;
46322;SDS011;32044;52.386;13.278;2023-12-28T05:35:45;4.80;;;2.38;;
46322;SDS011;32044;52.386;13.278;2023-12-28T05:38:12;3.75;;;1.90;;
46322;SDS011;32044;52.386;13.278;2023-12-28T05:40:40;2.78;;;1.60;;
46322;SDS011;32044;52.386;13.278;2023-12-28T05:43:07;1.90;;;1.52;;
46322;SDS011;32044;52.386;13.278;2023-12-28T05:45:35;3.83;;;2.00;;
46322;SDS011;32044;52.386;13.278;2023-12-28T05:48:03;3.05;;;1.60;;
46322;SDS011;32044;52.386;13.278;2023-12-28T05:50:31;1.88;;;1.60;;
46322;SDS011;32044;52.386;13.278;2023-12-28T05:53:00;5.68;;;2.25;;
46322;SDS011;32044;52.386;13.278;2023-12-28T05:55:28;2.80;;;2.10;;
46322;SDS011;32044;52.386;13.278;2023-12-28T05:57:56;3.20;;;1.85;;
46322;SDS011;32044;52.386;13.278;2023-12-28T06:00:24;6.93;;;1.80;;
46322;SDS011;32044;52.386;13.278;2023-12-28T06:02:54;5.63;;;1.92;;
46322;SDS011;32044;52.386;13.278;2023-12-28T06:05:21;3.50;;;1.60;;
46322;SDS011;32044;52.386;13.278;2023-12-28T06:07:49;2.75;;;1.75;;
46322;SDS011;32044;52.386;13.278;2023-12-28T06:10:18;2.83;;;1.90;;
46322;SDS011;32044;52.386;13.278;2023-12-28T06:12:46;3.67;;;1.75;;
46322;SDS011;32044;52.386;13.278;2023-12-28T06:15:13;2.95;;;1.80;;
46322;SDS011;32044;52.386;13.278;2023-12-28T06:17:41;2.83;;;1.58;;
46322;SDS011;32044;52.386;13.278;2023-12-28T06:20:09;3.03;;;1.75;;
46322;SDS011;32044;52.386;13.278;2023-12-28T06:22:37;3.90;;;1.70;;
46322;SDS011;32044;52.386;13.278;2023-12-28T06:25:05;3.25;;;1.83;;
46322;SDS011;32044;52.386;13.278;2023-12-28T06:27:34;3.85;;;1.90;;
46322;SDS011;32044;52.386;13.278;2023-12-28T06:30:01;2.88;;;1.42;;
46322;SDS011;32044;52.386;13.278;2023-12-28T06:32:29;2.05;;;1.70;;
46322;SDS011;32044;52.386;13.278;2023-12-28T06:34:57;3.05;;;2.00;;
46322;SDS011;32044;52.386;13.278;2023-12-28T06:37:24;2.22;;;1.63;;
46322;SDS011;32044;52.386;13.278;2023-12-28T06:39:52;4.43;;;2.22;;
46322;SDS011;32044;52.386;13.278;2023-12-28T06:42:19;4.18;;;1.70;;
46322;SDS011;32044;52.386;13.278;2023-12-28T06:44:48;3.40;;;1.77;;
46322;SDS011;32044;52.386;13.278;2023-12-28T06:47:16;4.63;;;1.85;;
46322;SDS011;32044;52.386;13.278;2023-12-28T06:49:44;5.03;;;2.28;;
46322;SDS011;32044;52.386;13.278;2023-12-28T06:52:12;7.72;;;2.08;;
46322;SDS011;32044;52.386;13.278;2023-12-28T06:54:39;1.90;;;1.48;;
46322;SDS011;32044;52.386;13.278;2023-12-28T06:57:07;3.08;;;1.77;;
46322;SDS011;32044;52.386;13.278;2023-12-28T06:59:34;3.08;;;2.15;;
46322;SDS011;32044;52.386;13.278;2023-12-28T07:02:03;5.90;;;1.90;;
46322;SDS011;32044;52.386;13.278;2023-12-28T07:04:31;2.60;;;1.70;;
46322;SDS011;32044;52.386;13.278;2023-12-28T07:06:59;2.08;;;1.83;;
46322;SDS011;32044;52.386;13.278;2023-12-28T07:09:29;2.90;;;1.90;;
46322;SDS011;32044;52.386;13.278;2023-12-28T07:12:14;3.22;;;2.08;;
46322;SDS011;32044;52.386;13.278;2023-12-28T07:14:59;3.38;;;2.03;;
46322;SDS011;32044;52.386;13.278;2023-12-28T07:17:43;3.85;;;2.20;;
46322;SDS011;32044;52.386;13.278;2023-12-28T07:20:22;2.25;;;1.67;;
46322;SDS011;32044;52.386;13.278;2023-12-28T07:23:07;2.47;;;1.70;;
46322;SDS011;32044;52.386;13.278;2023-12-28T07:25:59;3.80;;;1.67;;
46322;SDS011;32044;52.386;13.278;2023-12-28T07:28:30;2.28;;;1.23;;
46322;SDS011;32044;52.386;13.278;2023-12-28T07:30:58;3.22;;;1.90;;
46322;SDS011;32044;52.386;13.278;2023-12-28T07:33:27;6.97;;;2.00;;
46322;SDS011;32044;52.386;13.278;2023-12-28T07:35:55;4.55;;;2.72;;
46322;SDS011;32044;52.386;13.278;2023-12-28T07:38:25;2.92;;;1.58;;
46322;SDS011;32044;52.386;13.278;2023-12-28T07:40:52;4.13;;;1.80;;
46322;SDS011;32044;52.386;13.278;2023-12-28T07:43:20;2.83;;;1.70;;
46322;SDS011;32044;52.386;13.278;2023-12-28T07:45:48;2.67;;;1.73;;
46322;SDS011;32044;52.386;13.278;2023-12-28T07:48:20;4.70;;;2.10;;
46322;SDS011;32044;52.386;13.278;2023-12-28T07:50:49;3.30;;;1.65;;
46322;SDS011;32044;52.386;13.278;2023-12-28T07:53:18;2.63;;;1.90;;
46322;SDS011;32044;52.386;13.278;2023-12-28T07:55:45;3.10;;;1.90;;
46322;SDS011;32044;52.386;13.278;2023-12-28T07:58:13;6.03;;;2.00;;
46322;SDS011;32044;52.386;13.278;2023-12-28T08:00:40;2.55;;;2.17;;
46322;SDS011;32044;52.386;13.278;2023-12-28T08:03:08;2.55;;;1.60;;
46322;SDS011;32044;52.386;13.278;2023-12-28T08:05:38;2.55;;;1.92;;
46322;SDS011;32044;52.386;13.278;2023-12-28T08:08:07;2.97;;;1.77;;
46322;SDS011;32044;52.386;13.278;2023-12-28T08:10:35;2.60;;;1.95;;
46322;SDS011;32044;52.386;13.278;2023-12-28T08:13:02;3.03;;;1.80;;
46322;SDS011;32044;52.386;13.278;2023-12-28T08:15:30;5.55;;;2.40;;
46322;SDS011;32044;52.386;13.278;2023-12-28T08:17:57;2.45;;;2.00;;
46322;SDS011;32044;52.386;13.278;2023-12-28T08:20:26;3.13;;;1.95;;
46322;SDS011;32044;52.386;13.278;2023-12-28T08:22:53;2.88;;;1.70;;
46322;SDS011;32044;52.386;13.278;2023-12-28T08:25:42;3.20;;;2.20;;
46322;SDS011;32044;52.386;13.278;2023-12-28T08:28:10;3.60;;;2.20;;
46322;SDS011;32044;52.386;13.278;2023-12-28T08:30:38;5.22;;;1.90;;
46322;SDS011;32044;52.386;13.278;2023-12-28T08:33:06;4.28;;;2.85;;
46322;SDS011;32044;52.386;13.278;2023-12-28T08:35:34;5.13;;;2.35;;
46322;SDS011;32044;52.386;13.278;2023-12-28T08:38:02;4.82;;;2.30;;
46322;SDS011;32044;52.386;13.278;2023-12-28T08:40:30;4.28;;;2.60;;
46322;SDS011;32044;52.386;13.278;2023-12-28T08:42:59;3.83;;;2.65;;
46322;SDS011;32044;52.386;13.278;2023-12-28T08:45:36;3.05;;;2.00;;
46322;SDS011;32044;52.386;13.278;2023-12-28T08:48:05;5.20;;;2.33;;
46322;SDS011;32044;52.386;13.278;2023-12-28T08:50:32;5.22;;;2.20;;
46322;SDS011;32044;52.386;13.278;2023-12-28T08:53:00;6.93;;;2.33;;
46322;SDS011;32044;52.386;13.278;2023-12-28T08:55:28;4.63;;;2.60;;
46322;SDS011;32044;52.386;13.278;2023-12-28T08:57:55;4.63;;;2.22;;
46322;SDS011;32044;52.386;13.278;2023-12-28T09:00:25;3.60;;;2.10;;
46322;SDS011;32044;52.386;13.278;2023-12-28T09:02:52;4.55;;;2.58;;
46322;SDS011;32044;52.386;13.278;2023-12-28T09:05:20;4.50;;;2.25;;
46322;SDS011;32044;52.386;13.278;2023-12-28T09:07:47;3.38;;;2.42;;
46322;SDS011;32044;52.386;13.278;2023-12-28T09:10:15;4.60;;;2.53;;
46322;SDS011;32044;52.386;13.278;2023-12-28T09:12:43;4.03;;;2.30;;
46322;SDS011;32044;52.386;13.278;2023-12-28T09:15:13;4.40;;;2.22;;
46322;SDS011;32044;52.386;13.278;2023-12-28T09:17:43;6.97;;;2.30;;
46322;SDS011;32044;52.386;13.278;2023-12-28T09:20:11;4.28;;;2.50;;
46322;SDS011;32044;52.386;13.278;2023-12-28T09:22:39;5.05;;;2.63;;
46322;SDS011;32044;52.386;13.278;2023-12-28T09:25:07;4.10;;;2.30;;
46322;SDS011;32044;52.386;13.278;2023-12-28T09:27:35;3.67;;;2.35;;
46322;SDS011;32044;52.386;13.278;2023-12-28T09:30:03;3.20;;;2.22;;
46322;SDS011;32044;52.386;13.278;2023-12-28T09:32:31;3.30;;;2.30;;
46322;SDS011;32044;52.386;13.278;2023-12-28T09:35:00;5.25;;;2.70;;
46322;SDS011;32044;52.386;13.278;2023-12-28T09:37:28;9.02;;;2.45;;
46322;SDS011;32044;52.386;13.278;2023-12-28T09:39:56;2.78;;;2.22;;
46322;SDS011;32044;52.386;13.278;2023-12-28T09:42:25;4.28;;;2.70;;
46322;SDS011;32044;52.386;13.278;2023-12-28T09:44:53;4.65;;;2.33;;
46322;SDS011;32044;52.386;13.278;2023-12-28T09:47:21;5.00;;;2.38;;
46322;SDS011;32044;52.386;13.278;2023-12-28T09:49:48;6.18;;;2.83;;
46322;SDS011;32044;52.386;13.278;2023-12-28T09:52:18;4.55;;;2.72;;
46322;SDS011;32044;52.386;13.278;2023-12-28T09:54:45;6.65;;;2.58;;
46322;SDS011;32044;52.386;13.278;2023-12-28T09:57:13;4.45;;;2.88;;
46322;SDS011;32044;52.386;13.278;2023-12-28T09:59:41;5.15;;;2.80;;
46322;SDS011;32044;52.386;13.278;2023-12-28T10:02:09;6.70;;;2.92;;
46322;SDS011;32044;52.386;13.278;2023-12-28T10:04:37;3.42;;;2.60;;
46322;SDS011;32044;52.386;13.278;2023-12-28T10:07:05;6.35;;;2.47;;
46322;SDS011;32044;52.386;13.278;2023-12-28T10:09:34;4.50;;;2.55;;
46322;SDS011;32044;52.386;13.278;2023-12-28T10:12:02;5.35;;;2.75;;
46322;SDS011;32044;52.386;13.278;2023-12-28T10:14:30;4.30;;;2.78;;
46322;SDS011;32044;52.386;13.278;2023-12-28T10:16:58;4.57;;;2.63;;
46322;SDS011;32044;52.386;13.278;2023-12-28T10:19:26;3.88;;;2.30;;
46322;SDS011;32044;52.386;13.278;2023-12-28T10:21:53;4.40;;;2.75;;
46322;SDS011;32044;52.386;13.278;2023-12-28T10:24:21;4.40;;;2.53;;
46322;SDS011;32044;52.386;13.278;2023-12-28T10:26:53;4.22;;;2.88;;
46322;SDS011;32044;52.386;13.278;2023-12-28T10:29:24;4.03;;;2.45;;
46322;SDS011;32044;52.386;13.278;2023-12-28T10:31:52;4.18;;;2.50;;
46322;SDS011;32044;52.386;13.278;2023-12-28T10:34:24;3.67;;;2.97;;
46322;SDS011;32044;52.386;13.278;2023-12-28T10:36:53;5.43;;;2.85;;
46322;SDS011;32044;52.386;13.278;2023-12-28T10:39:22;4.40;;;2.80;;
46322;SDS011;32044;52.386;13.278;2023-12-28T10:41:57;4.03;;;2.58;;
46322;SDS011;32044;52.386;13.278;2023-12-28T10:44:27;7.32;;;2.95;;
46322;SDS011;32044;52.386;13.278;2023-12-28T10:47:03;5.25;;;2.53;;
46322;SDS011;32044;52.386;13.278;2023-12-28T10:49:33;4.28;;;2.67;;
46322;SDS011;32044;52.386;13.278;2023-12-28T10:54:37;4.72;;;2.55;;
46322;SDS011;32044;52.386;13.278;2023-12-28T11:00:07;5.22;;;2.92;;
46322;SDS011;32044;52.386;13.278;2023-12-28T11:02:41;3.47;;;2.90;;
46322;SDS011;32044;52.386;13.278;2023-12-28T11:05:14;5.97;;;2.90;;
46322;SDS011;32044;52.386;13.278;2023-12-28T11:07:43;3.78;;;2.53;;
46322;SDS011;32044;52.386;13.278;2023-12-28T11:10:20;3.63;;;2.28;;
46322;SDS011;32044;52.386;13.278;2023-12-28T11:12:54;6.60;;;2.67;;
46322;SDS011;32044;52.386;13.278;2023-12-28T11:18:13;4.15;;;2.40;;
46322;SDS011;32044;52.386;13.278;2023-12-28T11:20:44;3.97;;;2.35;;
46322;SDS011;32044;52.386;13.278;2023-12-28T11:23:15;6.88;;;2.63;;
46322;SDS011;32044;52.386;13.278;2023-12-28T11:25:51;4.85;;;2.72;;
46322;SDS011;32044;52.386;13.278;2023-12-28T11:28:25;3.97;;;2.30;;
46322;SDS011;32044;52.386;13.278;2023-12-28T11:30:55;4.90;;;2.33;;
46322;SDS011;32044;52.386;13.278;2023-12-28T11:33:53;4.45;;;2.58;;
46322;SDS011;32044;52.386;13.278;2023-12-28T11:36:25;4.05;;;2.40;;
46322;SDS011;32044;52.386;13.278;2023-12-28T11:41:47;5.75;;;2.80;;
46322;SDS011;32044;52.386;13.278;2023-12-28T11:44:37;4.72;;;2.40;;
46322;SDS011;32044;52.386;13.278;2023-12-28T11:47:12;4.32;;;3.03;;
46322;SDS011;32044;52.386;13.278;2023-12-28T11:49:53;3.72;;;2.67;;
46322;SDS011;32044;52.386;13.278;2023-12-28T11:52:23;4.45;;;2.05;;
46322;SDS011;32044;52.386;13.278;2023-12-28T11:55:04;4.82;;;2.28;;
46322;SDS011;32044;52.386;13.278;2023-12-28T11:57:32;4.28;;;2.55;;
46322;SDS011;32044;52.386;13.278;2023-12-28T12:00:01;4.43;;;2.47;;
46322;SDS011;32044;52.386;13.278;2023-12-28T12:02:34;2.75;;;2.33;;
46322;SDS011;32044;52.386;13.278;2023-12-28T12:05:12;3.72;;;2.55;;
46322;SDS011;32044;52.386;13.278;2023-12-28T12:07:42;7.55;;;3.10;;
46322;SDS011;32044;52.386;13.278;2023-12-28T12:10:13;4.10;;;2.33;;
46322;SDS011;32044;52.386;13.278;2023-12-28T12:12:48;4.78;;;2.55;;
46322;SDS011;32044;52.386;13.278;2023-12-28T12:15:24;3.97;;;2.10;;
46322;SDS011;32044;52.386;13.278;2023-12-28T12:17:56;4.20;;;2.45;;
46322;SDS011;32044;52.386;13.278;2023-12-28T12:22:58;3.20;;;2.28;;
46322;SDS011;32044;52.386;13.278;2023-12-28T12:25:28;3.67;;;2.35;;
46322;SDS011;32044;52.386;13.278;2023-12-28T12:27:59;3.67;;;2.15;;
46322;SDS011;32044;52.386;13.278;2023-12-28T12:30:30;5.53;;;2.30;;
46322;SDS011;32044;52.386;13.278;2023-12-28T12:33:09;3.35;;;2.17;;
46322;SDS011;32044;52.386;13.278;2023-12-28T12:35:46;5.28;;;2.17;;
46322;SDS011;32044;52.386;13.278;2023-12-28T12:38:39;3.65;;;2.20;;
46322;SDS011;32044;52.386;13.278;2023-12-28T12:41:12;4.85;;;2.00;;
46322;SDS011;32044;52.386;13.278;2023-12-28T12:43:45;2.88;;;2.20;;
46322;SDS011;32044;52.386;13.278;2023-12-28T12:46:32;5.70;;;2.10;;
46322;SDS011;32044;52.386;13.278;2023-12-28T12:49:21;4.18;;;2.00;;
46322;SDS011;32044;52.386;13.278;2023-12-28T12:52:07;5.03;;;2.20;;
46322;SDS011;32044;52.386;13.278;2023-12-28T12:57:52;5.05;;;2.47;;
46322;SDS011;32044;52.386;13.278;2023-12-28T13:00:25;3.95;;;2.00;;
46322;SDS011;32044;52.386;13.278;2023-12-28T13:03:05;6.10;;;2.40;;
46322;SDS011;32044;52.386;13.278;2023-12-28T13:05:42;3.30;;;2.25;;
46322;SDS011;32044;52.386;13.278;2023-12-28T13:08:17;3.67;;;1.90;;
46322;SDS011;32044;52.386;13.278;2023-12-28T13:11:01;3.53;;;2.25;;
46322;SDS011;32044;52.386;13.278;2023-12-28T13:13:32;5.18;;;2.50;;
46322;SDS011;32044;52.386;13.278;2023-12-28T13:16:09;3.30;;;2.40;;
46322;SDS011;32044;52.386;13.278;2023-12-28T13:18:38;6.45;;;2.65;;
46322;SDS011;32044;52.386;13.278;2023-12-28T13:21:09;6.18;;;2.78;;
46322;SDS011;32044;52.386;13.278;2023-12-28T13:23:39;6.60;;;3.20;;
46322;SDS011;32044;52.386;13.278;2023-12-28T13:26:07;3.55;;;2.20;;
46322;SDS011;32044;52.386;13.278;2023-12-28T13:28:36;3.78;;;2.20;;
46322;SDS011;32044;52.386;13.278;2023-12-28T13:31:05;4.28;;;2.28;;
46322;SDS011;32044;52.386;13.278;2023-12-28T13:33:34;4.20;;;2.10;;
46322;SDS011;32044;52.386;13.278;2023-12-28T13:36:02;6.95;;;2.38;;
46322;SDS011;32044;52.386;13.278;2023-12-28T13:38:30;4.03;;;2.47;;
46322;SDS011;32044;52.386;13.278;2023-12-28T13:40:58;7.65;;;2.00;;
46322;SDS011;32044;52.386;13.278;2023-12-28T13:43:31;3.92;;;2.17;;
46322;SDS011;32044;52.386;13.278;2023-12-28T13:46:01;5.63;;;2.20;;
46322;SDS011;32044;52.386;13.278;2023-12-28T13:51:02;4.65;;;2.03;;
46322;SDS011;32044;52.386;13.278;2023-12-28T13:53:29;6.32;;;2.17;;
46322;SDS011;32044;52.386;13.278;2023-12-28T13:55:58;6.75;;;2.33;;
46322;SDS011;32044;52.386;13.278;2023-12-28T13:58:25;4.63;;;2.28;;
46322;SDS011;32044;52.386;13.278;2023-12-28T14:00:53;4.20;;;2.15;;
46322;SDS011;32044;52.386;13.278;2023-12-28T14:03:28;4.47;;;1.73;;
46322;SDS011;32044;52.386;13.278;2023-12-28T14:05:59;6.70;;;2.20;;
46322;SDS011;32044;52.386;13.278;2023-12-28T14:08:27;9.30;;;2.67;;
46322;SDS011;32044;52.386;13.278;2023-12-28T14:10:57;4.68;;;2.20;;
46322;SDS011;32044;52.386;13.278;2023-12-28T14:13:26;4.03;;;2.25;;
46322;SDS011;32044;52.386;13.278;2023-12-28T14:15:54;5.05;;;2.08;;
46322;SDS011;32044;52.386;13.278;2023-12-28T14:18:23;3.50;;;2.08;;
46322;SDS011;32044;52.386;13.278;2023-12-28T14:20:52;5.80;;;1.92;;
46322;SDS011;32044;52.386;13.278;2023-12-28T14:23:20;2.70;;;1.90;;
46322;SDS011;32044;52.386;13.278;2023-12-28T14:25:58;5.38;;;2.10;;
46322;SDS011;32044;52.386;13.278;2023-12-28T14:28:25;3.10;;;1.90;;
46322;SDS011;32044;52.386;13.278;2023-12-28T14:30:55;5.95;;;2.33;;
46322;SDS011;32044;52.386;13.278;2023-12-28T14:33:24;4.53;;;2.20;;
46322;SDS011;32044;52.386;13.278;2023-12-28T14:35:54;4.95;;;2.20;;
46322;SDS011;32044;52.386;13.278;2023-12-28T14:38:23;4.47;;;2.10;;
46322;SDS011;32044;52.386;13.278;2023-12-28T14:40:53;5.93;;;2.00;;
46322;SDS011;32044;52.386;13.278;2023-12-28T14:43:22;5.57;;;1.98;;
46322;SDS011;32044;52.386;13.278;2023-12-28T14:45:50;4.55;;;2.10;;
46322;SDS011;32044;52.386;13.278;2023-12-28T14:48:19;2.90;;;1.98;;
46322;SDS011;32044;52.386;13.278;2023-12-28T14:50:47;3.45;;;2.30;;
46322;SDS011;32044;52.386;13.278;2023-12-28T14:53:16;3.92;;;2.22;;
46322;SDS011;32044;52.386;13.278;2023-12-28T14:55:44;4.35;;;1.95;;
46322;SDS011;32044;52.386;13.278;2023-12-28T14:58:11;4.57;;;2.25;;
46322;SDS011;32044;52.386;13.278;2023-12-28T15:00:39;2.97;;;2.05;;
46322;SDS011;32044;52.386;13.278;2023-12-28T15:03:07;4.07;;;2.20;;
46322;SDS011;32044;52.386;13.278;2023-12-28T15:05:34;7.28;;;2.20;;
46322;SDS011;32044;52.386;13.278;2023-12-28T15:08:02;3.80;;;2.10;;